Time;durP1;ratioP1;P1;durP2;ratioP2;P2;SDS_P1;SDS_P2;PMS_P1;PMS_P2;Temp;Humidity;BMP_temperature;BMP_pressure;BME280_temperature;BME280_humidity;BME280_pressure;Samples;Min_cycle;Max_cycle;Signal;HPM_P1;HPM_P2
2022/01/31 00:00:15;;;;;;;14.03;6.33;;;;;;;18.87;49.23;100869.78;5029488;28;20636;-59
2022/01/31 00:02:41;;;;;;;12.37;6.60;;;;;;;18.85;49.39;100878.72;5029435;28;20849;-59
2022/01/31 00:05:07;;;;;;;11.27;6.33;;;;;;;18.86;49.25;100886.09;5029670;28;20553;-58
2022/01/31 00:07:33;;;;;;;18.57;7.40;;;;;;;18.85;49.36;100884.44;5029808;28;20510;-59
2022/01/31 00:09:58;;;;;;;15.20;7.37;;;;;;;18.84;49.28;100887.66;5029079;28;20179;-59
2022/01/31 00:12:28;;;;;;;11.30;6.53;;;;;;;18.83;49.62;100886.84;5030742;28;20538;-59
2022/01/31 00:15:00;;;;;;;14.10;7.00;;;;;;;18.84;49.25;100897.09;5034065;28;20196;-59
2022/01/31 00:17:26;;;;;;;12.90;6.40;;;;;;;18.85;49.05;100893.03;5033707;28;20502;-59
2022/01/31 00:19:51;;;;;;;8.53;5.73;;;;;;;18.85;49.36;100878.72;5032766;28;20899;-59
2022/01/31 00:22:17;;;;;;;13.17;7.00;;;;;;;18.83;49.52;100886.00;5033471;28;20636;-59
2022/01/31 00:24:42;;;;;;;13.23;7.00;;;;;;;18.82;49.42;100887.22;5033458;28;20176;-59
2022/01/31 00:27:08;;;;;;;13.10;6.97;;;;;;;18.80;49.51;100881.00;5034154;28;20203;-59
2022/01/31 00:29:34;;;;;;;13.93;6.50;;;;;;;18.84;49.44;100882.78;5033178;28;20180;-59
2022/01/31 00:31:59;;;;;;;14.57;7.00;;;;;;;18.79;49.53;100871.63;5033061;28;20255;-59
2022/01/31 00:34:25;;;;;;;11.60;6.50;;;;;;;18.80;49.51;100861.84;5033543;28;20231;-59
2022/01/31 00:36:50;;;;;;;11.47;6.50;;;;;;;18.85;49.43;100867.28;5033154;28;20547;-58
2022/01/31 00:39:16;;;;;;;11.00;5.97;;;;;;;18.81;49.49;100863.50;5032429;28;20654;-59
2022/01/31 00:41:41;;;;;;;12.50;6.67;;;;;;;18.80;49.56;100830.38;5032301;28;20184;-59
2022/01/31 00:44:17;;;;;;;10.87;6.30;;;;;;;18.78;49.84;100832.78;5033622;28;20223;-59
2022/01/31 00:46:49;;;;;;;13.97;5.73;;;;;;;18.76;50.11;100817.19;5032468;28;20273;-60
2022/01/31 00:50:06;;;;;;;11.20;7.00;;;;;;;18.77;49.65;100807.41;5032580;28;20486;-59
2022/01/31 00:52:04;;;;;;;11.87;6.40;;;;;;;18.79;49.65;100800.09;5032443;28;20439;-59
2022/01/31 00:54:29;;;;;;;9.47;5.83;;;;;;;18.78;49.94;100812.75;5033524;28;20421;-59
2022/01/31 00:56:55;;;;;;;12.20;6.37;;;;;;;18.75;49.84;100799.19;5031095;28;20203;-59
2022/01/31 00:59:21;;;;;;;17.93;6.47;;;;;;;18.79;49.39;100793.53;5031265;28;20644;-59
2022/01/31 01:01:46;;;;;;;11.37;5.97;;;;;;;18.82;49.89;100798.53;5032825;28;20432;-59
2022/01/31 01:04:12;;;;;;;12.03;6.47;;;;;;;18.79;49.95;100793.53;5032916;28;20183;-59
2022/01/31 01:06:37;;;;;;;10.30;5.73;;;;;;;18.81;49.67;100783.38;5032946;28;20204;-59
2022/01/31 01:09:03;;;;;;;10.30;6.10;;;;;;;18.78;49.54;100780.44;5032711;28;20258;-59
2022/01/31 01:11:28;;;;;;;9.30;6.03;;;;;;;18.76;49.87;100766.50;5032418;28;20518;-59
2022/01/31 01:13:54;;;;;;;12.53;6.03;;;;;;;18.78;49.91;100757.56;5033004;28;20203;-59
2022/01/31 01:16:19;;;;;;;10.73;6.60;;;;;;;18.77;49.62;100756.72;5032097;28;20242;-59
2022/01/31 01:18:44;;;;;;;10.07;5.93;;;;;;;18.78;49.80;100751.84;5032043;28;20192;-59
2022/01/31 01:21:10;;;;;;;10.47;6.20;;;;;;;18.77;49.73;100733.84;5032350;28;20172;-59
2022/01/31 01:23:35;;;;;;;10.10;5.73;;;;;;;18.74;50.05;100720.31;5032268;28;20632;-58
2022/01/31 01:26:01;;;;;;;9.47;5.50;;;;;;;18.74;50.03;100716.59;5032483;28;20176;-59
2022/01/31 01:28:26;;;;;;;10.20;6.93;;;;;;;18.73;50.07;100721.50;5032767;28;20209;-59
2022/01/31 01:30:54;;;;;;;10.50;5.83;;;;;;;18.71;49.96;100701.00;5032351;28;20179;-59
2022/01/31 01:33:20;;;;;;;8.63;4.90;;;;;;;18.72;50.00;100676.91;5032021;28;20208;-59
2022/01/31 01:35:48;;;;;;;8.60;5.80;;;;;;;18.73;49.94;100660.59;5032147;28;20879;-59
2022/01/31 01:38:16;;;;;;;9.37;5.50;;;;;;;18.74;50.01;100642.22;5031782;28;20429;-58
2022/01/31 01:40:42;;;;;;;8.33;5.50;;;;;;;18.74;50.17;100631.63;5031747;28;20411;-59
2022/01/31 01:43:08;;;;;;;9.30;5.67;;;;;;;18.72;49.88;100611.13;5032162;28;20419;-59
2022/01/31 01:45:33;;;;;;;12.30;5.50;;;;;;;18.71;50.12;100615.22;5031973;28;20505;-59
2022/01/31 01:47:59;;;;;;;9.10;5.20;;;;;;;18.74;49.76;100587.88;5031804;28;20204;-59
2022/01/31 01:50:24;;;;;;;9.37;5.80;;;;;;;18.75;49.92;100589.53;5031221;28;20184;-59
2022/01/31 01:52:51;;;;;;;9.97;5.80;;;;;;;18.68;50.13;100587.38;5031742;28;20200;-59
2022/01/31 01:55:17;;;;;;;9.30;5.20;;;;;;;18.69;50.24;100579.59;5031222;28;20184;-59
2022/01/31 01:57:42;;;;;;;9.70;5.40;;;;;;;18.73;50.10;100589.94;5031330;28;20858;-59
2022/01/31 02:00:18;;;;;;;8.87;4.80;;;;;;;18.72;50.08;100576.00;5031468;28;20645;-59
2022/01/31 02:02:44;;;;;;;10.37;5.20;;;;;;;18.74;49.66;100568.72;5011548;28;20291;-59
2022/01/31 02:05:10;;;;;;;10.10;5.37;;;;;;;18.72;49.98;100561.72;5027512;28;20438;-59
2022/01/31 02:07:35;;;;;;;7.17;4.50;;;;;;;18.70;49.97;100556.34;5031489;28;20891;-59
2022/01/31 02:10:04;;;;;;;9.63;5.27;;;;;;;18.68;50.28;100547.34;5030312;28;20470;-59
2022/01/31 02:12:46;;;;;;;8.90;5.50;;;;;;;18.69;50.08;100546.13;5030898;28;20227;-59
2022/01/31 02:15:12;;;;;;;9.37;5.73;;;;;;;18.69;50.03;100543.28;5031981;28;20407;-59
2022/01/31 02:17:37;;;;;;;8.33;5.50;;;;;;;18.68;49.99;100535.91;5031608;28;20411;-59
2022/01/31 02:20:04;;;;;;;8.37;5.20;;;;;;;18.73;49.97;100534.75;5031263;28;20176;-60
2022/01/31 02:22:29;;;;;;;7.80;4.80;;;;;;;18.68;50.34;100540.78;5030954;28;20180;-59
2022/01/31 02:24:55;;;;;;;6.73;5.33;;;;;;;18.65;50.18;100533.78;5031107;28;20422;-59
2022/01/31 02:27:30;;;;;;;7.90;4.53;;;;;;;18.66;50.17;100532.56;5030634;28;20183;-58
2022/01/31 02:29:56;;;;;;;14.10;5.00;;;;;;;18.66;50.14;100514.59;5031091;28;20212;-59
2022/01/31 02:32:22;;;;;;;9.93;5.17;;;;;;;18.66;50.31;100501.13;5030947;28;20740;-59
2022/01/31 02:34:48;;;;;;;8.00;5.07;;;;;;;18.69;49.87;100488.94;5030738;28;20313;-59
2022/01/31 02:37:13;;;;;;;8.73;5.07;;;;;;;18.66;50.39;100469.66;5030593;28;20454;-59
2022/01/31 02:39:39;;;;;;;7.27;4.67;;;;;;;18.65;50.06;100453.72;5031160;28;20422;-59
2022/01/31 02:42:05;;;;;;;9.00;4.93;;;;;;;18.67;49.99;100444.75;5030266;28;20548;-59
2022/01/31 02:44:30;;;;;;;8.67;5.23;;;;;;;18.66;50.13;100421.03;5030726;28;20500;-59
2022/01/31 02:46:56;;;;;;;12.30;5.63;;;;;;;18.64;50.45;100414.88;5030996;28;20176;-58
2022/01/31 02:49:34;;;;;;;8.60;5.60;;;;;;;18.62;50.35;100423.00;5030719;28;20184;-59
2022/01/31 02:52:02;;;;;;;7.70;4.90;;;;;;;18.64;50.07;100414.88;5017314;28;20403;-59
2022/01/31 02:54:29;;;;;;;7.80;4.97;;;;;;;18.66;50.45;100408.78;5030402;28;20430;-59
2022/01/31 02:56:54;;;;;;;7.47;4.30;;;;;;;18.62;50.17;100394.41;5030544;28;20421;-59
2022/01/31 02:59:20;;;;;;;7.50;4.73;;;;;;;18.63;49.90;100378.94;5029905;28;20466;-60
2022/01/31 03:01:45;;;;;;;11.73;4.80;;;;;;;18.63;50.27;100360.94;5030496;28;20196;-58
2022/01/31 03:04:12;;;;;;;7.93;4.63;;;;;;;18.60;50.68;100371.09;5030680;28;20184;-59
2022/01/31 03:06:38;;;;;;;6.17;4.27;;;;;;;18.65;49.88;100365.06;5030749;28;20288;-59
2022/01/31 03:09:04;;;;;;;8.77;4.90;;;;;;;18.64;50.10;100368.28;5029922;28;20474;-59
2022/01/31 03:11:30;;;;;;;7.07;4.50;;;;;;;18.63;50.06;100356.06;5030455;28;20880;-59
2022/01/31 03:13:55;;;;;;;7.07;4.27;;;;;;;18.64;50.43;100342.56;5030282;28;20696;-59
2022/01/31 03:16:21;;;;;;;8.77;4.57;;;;;;;18.59;50.40;100320.00;5028926;28;20223;-59
2022/01/31 03:18:46;;;;;;;10.17;5.57;;;;;;;18.60;50.21;100287.34;5028922;28;20168;-59
2022/01/31 03:21:12;;;;;;;5.83;4.27;;;;;;;18.62;50.38;100262.88;5029962;28;20181;-59
2022/01/31 03:23:38;;;;;;;6.80;4.33;;;;;;;18.60;50.22;100248.16;5030892;28;20520;-58
2022/01/31 03:26:03;;;;;;;6.20;3.90;;;;;;;18.59;50.02;100280.81;5030556;28;20167;-59
2022/01/31 03:28:28;;;;;;;10.87;4.47;;;;;;;18.60;50.45;100302.47;5030327;28;20252;-59
2022/01/31 03:30:56;;;;;;;9.50;4.80;;;;;;;18.63;50.13;100318.88;5029405;28;20176;-59
2022/01/31 03:33:21;;;;;;;6.20;4.10;;;;;;;18.60;50.25;100316.75;5030249;28;20209;-59
2022/01/31 03:35:46;;;;;;;7.60;4.70;;;;;;;18.61;50.30;100291.88;5030336;28;20430;-59
2022/01/31 03:38:12;;;;;;;6.90;3.93;;;;;;;18.62;50.70;100285.75;5029538;28;20180;-59
2022/01/31 03:40:37;;;;;;;6.30;4.10;;;;;;;18.60;50.45;100282.47;5029820;28;20176;-59
2022/01/31 03:43:03;;;;;;;7.60;4.60;;;;;;;18.59;50.50;100275.09;5030180;28;20558;-59
2022/01/31 03:45:33;;;;;;;10.47;5.23;;;;;;;18.57;50.36;100263.19;5030257;28;20271;-59
2022/01/31 03:48:00;;;;;;;5.90;3.70;;;;;;;18.57;50.18;100268.91;5029237;28;20255;-59
2022/01/31 03:50:26;;;;;;;7.93;3.90;;;;;;;18.62;50.28;100262.06;5028753;28;20899;-59
2022/01/31 03:52:53;;;;;;;5.90;3.63;;;;;;;18.58;50.13;100262.00;5029925;28;20455;-59
2022/01/31 03:55:19;;;;;;;8.93;4.30;;;;;;;18.57;51.12;100259.53;5029913;28;20431;-59
2022/01/31 03:57:44;;;;;;;8.30;4.27;;;;;;;18.61;50.16;100275.53;5026836;28;20470;-59
2022/01/31 04:00:11;;;;;;;7.87;4.60;;;;;;;18.60;50.08;100276.75;5029126;28;20184;-59
2022/01/31 04:02:36;;;;;;;5.27;4.03;;;;;;;18.58;50.48;100270.59;5027509;28;20699;-59
2022/01/31 04:05:02;;;;;;;7.77;4.53;;;;;;;18.56;50.32;100272.97;5030046;28;20423;-59
2022/01/31 04:07:27;;;;;;;7.40;4.57;;;;;;;18.62;50.11;100267.78;5028713;28;20191;-59
2022/01/31 04:09:53;;;;;;;5.70;4.20;;;;;;;18.61;50.42;100280.44;5029565;28;20200;-59
2022/01/31 04:12:19;;;;;;;7.60;4.27;;;;;;;18.60;50.43;100273.03;5029741;28;20192;-59
2022/01/31 04:14:44;;;;;;;7.03;4.30;;;;;;;18.60;50.24;100270.19;5029690;28;20172;-59
2022/01/31 04:17:10;;;;;;;5.70;3.50;;;;;;;18.57;50.22;100268.91;5029644;28;20577;-59
2022/01/31 04:19:37;;;;;;;6.20;4.23;;;;;;;18.58;50.37;100267.72;5029269;28;20279;-59
2022/01/31 04:22:05;;;;;;;6.80;3.83;;;;;;;18.59;50.47;100259.97;5028714;28;20436;-59
2022/01/31 04:24:33;;;;;;;5.90;3.67;;;;;;;18.65;49.94;100262.13;5029519;28;20434;-59
2022/01/31 04:27:05;;;;;;;6.57;4.57;;;;;;;18.62;50.25;100262.88;5029521;28;20422;-59
2022/01/31 04:29:32;;;;;;;6.77;4.40;;;;;;;18.56;50.40;100263.59;5029365;28;20414;-59
2022/01/31 04:31:57;;;;;;;6.17;4.00;;;;;;;18.62;50.24;100264.94;5029278;28;20419;-59
2022/01/31 04:34:23;;;;;;;6.10;4.00;;;;;;;18.60;50.29;100262.44;5029381;28;20513;-60
2022/01/31 04:36:48;;;;;;;5.63;3.90;;;;;;;18.60;49.98;100253.88;5028900;28;20168;-58
2022/01/31 04:39:17;;;;;;;6.23;4.13;;;;;;;18.58;50.05;100253.44;5029214;28;20173;-60
2022/01/31 04:41:44;;;;;;;6.37;3.90;;;;;;;18.55;50.95;100224.75;5029246;28;20176;-59
2022/01/31 04:44:10;;;;;;;5.27;3.30;;;;;;;18.59;50.87;100225.66;5030172;28;20937;-59
2022/01/31 04:46:35;;;;;;;6.53;4.10;;;;;;;18.58;50.19;100216.25;5028706;28;20506;-59
2022/01/31 04:49:01;;;;;;;6.53;3.73;;;;;;;18.61;50.11;100206.91;5027351;28;20977;-59
2022/01/31 04:51:26;;;;;;;7.80;3.47;;;;;;;18.58;50.37;100184.81;5029267;28;20641;-59
2022/01/31 04:53:52;;;;;;;6.90;3.70;;;;;;;18.56;50.17;100172.09;5029400;28;20227;-58
2022/01/31 04:56:17;;;;;;;5.63;3.47;;;;;;;18.61;50.28;100146.06;5029316;28;20723;-59
2022/01/31 04:58:43;;;;;;;7.80;4.53;;;;;;;18.59;50.09;100149.28;5030281;28;20272;-59
2022/01/31 05:01:09;;;;;;;5.90;4.23;;;;;;;18.59;50.30;100146.44;5032352;28;20584;-59
2022/01/31 05:03:34;;;;;;;5.27;3.80;;;;;;;18.59;50.34;100140.72;5032551;28;20232;-59
2022/01/31 05:06:00;;;;;;;5.50;3.73;;;;;;;18.58;50.77;100141.94;5033042;28;20243;-59
2022/01/31 05:08:28;;;;;;;5.50;3.57;;;;;;;18.61;50.02;100126.84;5032602;28;20198;-59
2022/01/31 05:10:53;;;;;;;5.03;3.57;;;;;;;18.59;49.95;100125.56;5032824;28;20200;-59
2022/01/31 05:13:19;;;;;;;5.77;3.67;;;;;;;18.59;50.26;100119.88;5032341;28;20520;-58
2022/01/31 05:15:45;;;;;;;5.70;3.77;;;;;;;18.59;50.20;100103.53;5032371;28;20180;-59
2022/01/31 05:18:10;;;;;;;4.63;3.50;;;;;;;18.62;50.13;100079.06;5032569;28;20216;-59
2022/01/31 05:20:36;;;;;;;6.00;3.83;;;;;;;18.60;50.28;100065.16;5032413;28;20434;-58
2022/01/31 05:23:02;;;;;;;8.97;3.60;;;;;;;18.60;50.00;100053.72;5032691;28;20173;-59
2022/01/31 05:25:27;;;;;;;5.93;3.73;;;;;;;18.60;49.81;100042.28;5030244;28;20183;-59
2022/01/31 05:27:52;;;;;;;4.20;3.07;;;;;;;18.59;50.17;100040.63;5032322;28;20184;-58
2022/01/31 05:30:18;;;;;;;5.20;3.50;;;;;;;18.60;50.26;100036.56;5032186;28;20172;-59
2022/01/31 05:32:44;;;;;;;5.80;3.23;;;;;;;18.62;50.07;100031.28;5032475;28;20199;-59
2022/01/31 05:35:09;;;;;;;4.60;3.27;;;;;;;18.62;49.87;100027.59;5032338;28;20188;-59
2022/01/31 05:37:35;;;;;;;5.90;3.50;;;;;;;18.64;49.92;100023.16;5031419;28;20176;-59
2022/01/31 05:40:02;;;;;;;7.13;4.00;;;;;;;18.64;50.26;100013.72;5032092;28;20226;-61
2022/01/31 05:42:27;;;;;;;6.40;3.80;;;;;;;18.65;50.05;99995.34;5032400;28;20184;-59
2022/01/31 05:44:52;;;;;;;7.33;3.67;;;;;;;18.62;49.99;99976.94;5031903;28;20431;-59
2022/01/31 05:47:18;;;;;;;5.63;3.83;;;;;;;18.60;49.97;99967.09;5031526;28;20541;-59
2022/01/31 05:49:43;;;;;;;5.17;3.40;;;;;;;18.60;50.36;99972.84;5031774;28;20184;-59
2022/01/31 05:52:09;;;;;;;5.60;3.30;;;;;;;18.62;49.85;99981.88;5031951;28;20177;-59
2022/01/31 05:54:35;;;;;;;4.70;2.83;;;;;;;18.62;49.99;99976.94;5031563;28;20200;-60
2022/01/31 05:57:01;;;;;;;4.07;2.97;;;;;;;18.61;49.88;99965.94;5011746;28;20170;-59
2022/01/31 05:59:27;;;;;;;5.90;3.67;;;;;;;18.64;49.80;99983.13;5011972;28;20969;-59
2022/01/31 06:01:52;;;;;;;5.67;3.33;;;;;;;18.62;50.04;99985.53;5019867;28;20265;-59
2022/01/31 06:04:18;;;;;;;4.97;3.10;;;;;;;18.64;49.70;99982.28;5030439;28;20698;-59
2022/01/31 06:06:43;;;;;;;5.77;3.40;;;;;;;18.64;49.86;99990.84;5031198;28;20276;-59
2022/01/31 06:09:09;;;;;;;4.30;2.83;;;;;;;18.65;49.74;99990.47;5031551;28;20176;-60
2022/01/31 06:11:34;;;;;;;4.90;3.20;;;;;;;18.62;50.08;99993.28;5029365;28;20238;-59
2022/01/31 06:14:01;;;;;;;4.97;3.27;;;;;;;18.64;50.13;99996.56;5031513;28;20208;-59
2022/01/31 06:16:27;;;;;;;3.87;2.73;;;;;;;18.64;50.39;100003.13;5030509;28;20181;-59
2022/01/31 06:18:53;;;;;;;6.63;3.60;;;;;;;18.62;50.05;99999.00;5031410;28;20845;-59
2022/01/31 06:21:18;;;;;;;4.30;3.00;;;;;;;18.65;49.77;100001.91;5031167;28;20422;-59
2022/01/31 06:23:44;;;;;;;5.40;3.63;;;;;;;18.63;50.01;100004.34;5031450;28;20184;-59
2022/01/31 06:26:09;;;;;;;3.87;2.60;;;;;;;18.65;49.74;100003.94;5031406;28;20173;-59
2022/01/31 06:28:35;;;;;;;5.50;3.13;;;;;;;18.65;50.02;100004.78;5031129;28;20648;-59
2022/01/31 06:31:00;;;;;;;5.13;3.00;;;;;;;18.65;49.96;100004.78;5030277;28;20187;-59
2022/01/31 06:33:26;;;;;;;8.50;3.67;;;;;;;18.68;49.72;99998.28;5030948;28;20208;-59
2022/01/31 06:35:51;;;;;;;4.77;3.10;;;;;;;18.61;50.08;99997.38;5030647;28;20644;-59
2022/01/31 06:38:17;;;;;;;5.83;3.50;;;;;;;18.66;49.66;99997.84;5030996;28;20176;-59
2022/01/31 06:40:42;;;;;;;5.30;3.20;;;;;;;18.68;49.57;100008.88;5030588;28;20629;-59
2022/01/31 06:43:08;;;;;;;5.77;3.27;;;;;;;18.68;49.66;100004.00;5030214;28;20226;-59
2022/01/31 06:45:33;;;;;;;5.00;3.00;;;;;;;18.65;50.02;100001.91;5029912;28;20210;-59
2022/01/31 06:47:59;;;;;;;6.20;3.60;;;;;;;18.66;49.88;100008.47;5030962;28;20579;-59
2022/01/31 06:50:24;;;;;;;5.30;3.30;;;;;;;18.64;49.86;100003.13;5030471;28;20180;-59
2022/01/31 06:52:54;;;;;;;5.30;3.17;;;;;;;18.68;49.83;100021.16;5030331;28;20209;-60
2022/01/31 06:55:20;;;;;;;5.30;3.30;;;;;;;18.67;49.91;100008.06;5030649;28;20263;-59
2022/01/31 06:57:50;;;;;;;2.87;2.40;;;;;;;18.68;49.58;100015.44;5030824;28;20423;-59
2022/01/31 07:00:18;;;;;;;4.53;2.93;;;;;;;18.67;50.20;100019.50;5029678;28;20458;-59
2022/01/31 07:02:47;;;;;;;7.10;3.17;;;;;;;18.67;50.01;100033.78;5030004;28;20466;-59
2022/01/31 07:05:16;;;;;;;6.57;3.13;;;;;;;18.67;49.86;100022.34;5030508;28;20580;-61
2022/01/31 07:07:42;;;;;;;5.07;3.20;;;;;;;18.71;49.74;100019.56;5030455;28;20430;-59
2022/01/31 07:10:08;;;;;;;4.40;3.10;;;;;;;18.66;49.80;100017.84;5030444;28;20423;-59
2022/01/31 07:12:37;;;;;;;3.93;2.50;;;;;;;18.71;49.73;100020.38;5030643;28;20176;-59
2022/01/31 07:15:03;;;;;;;5.27;3.10;;;;;;;18.68;49.97;100023.19;5030496;28;20422;-59
2022/01/31 07:17:30;;;;;;;4.60;2.80;;;;;;;18.70;49.69;100021.59;5029531;28;20431;-60
2022/01/31 07:19:55;;;;;;;6.10;3.00;;;;;;;18.68;49.93;100011.75;5030130;28;20454;-59
2022/01/31 07:22:27;;;;;;;4.43;3.07;;;;;;;18.67;50.14;100025.22;5029886;28;20418;-60
2022/01/31 07:25:02;;;;;;;4.07;2.63;;;;;;;18.73;49.37;100012.25;5030148;28;20656;-59
2022/01/31 07:27:28;;;;;;;4.13;2.93;;;;;;;18.67;49.99;100042.38;5030549;28;20417;-59
2022/01/31 07:29:53;;;;;;;6.03;3.23;;;;;;;18.75;49.43;100046.16;5030283;28;20423;-60
2022/01/31 07:32:19;;;;;;;5.20;3.00;;;;;;;18.70;49.68;100053.03;5030169;28;20164;-59
2022/01/31 07:34:46;;;;;;;5.00;3.10;;;;;;;18.70;49.82;100052.19;5029496;28;20241;-59
2022/01/31 07:37:12;;;;;;;4.97;3.00;;;;;;;18.71;49.70;100048.97;5030136;28;20176;-59
2022/01/31 07:39:39;;;;;;;5.57;3.33;;;;;;;18.69;49.95;100056.28;5029911;28;20450;-59
2022/01/31 07:42:05;;;;;;;4.37;2.67;;;;;;;18.68;50.08;100063.22;5030307;28;20180;-59
2022/01/31 07:44:30;;;;;;;3.50;2.80;;;;;;;18.67;50.10;100058.72;5030192;28;20509;-59
2022/01/31 07:46:55;;;;;;;3.67;2.50;;;;;;;18.71;50.11;100060.41;5030001;28;20538;-58
2022/01/31 07:49:22;;;;;;;4.10;2.60;;;;;;;18.69;49.79;100064.88;5028741;28;20255;-59
2022/01/31 07:51:47;;;;;;;4.57;2.97;;;;;;;18.69;49.96;100065.69;5029427;28;20659;-59
2022/01/31 07:54:13;;;;;;;3.70;2.70;;;;;;;18.71;49.63;100065.31;5029902;28;20451;-59
2022/01/31 07:56:38;;;;;;;5.40;2.97;;;;;;;18.70;49.66;100058.75;5030010;28;20574;-59
2022/01/31 07:59:04;;;;;;;4.97;2.70;;;;;;;18.69;50.01;100059.13;5029802;28;20173;-59
2022/01/31 08:01:29;;;;;;;4.13;2.60;;;;;;;18.69;49.90;100065.69;5029381;28;20530;-59
2022/01/31 08:03:54;;;;;;;4.47;3.00;;;;;;;18.70;49.67;100073.06;5029525;28;20220;-59
2022/01/31 08:06:20;;;;;;;4.53;2.77;;;;;;;18.73;49.74;100072.28;5029544;28;20247;-60
2022/01/31 08:08:45;;;;;;;4.50;3.00;;;;;;;18.70;49.57;100073.06;5029236;28;20207;-59
2022/01/31 08:11:11;;;;;;;4.43;2.70;;;;;;;18.68;50.28;100072.63;5029632;28;20176;-60
2022/01/31 08:13:37;;;;;;;3.87;2.63;;;;;;;18.70;49.59;100070.19;5029733;28;20795;-59
2022/01/31 08:18:38;;;;;;;5.27;2.90;;;;;;;18.66;50.34;100063.59;5029536;28;20200;-59
2022/01/31 08:21:04;;;;;;;4.93;2.60;;;;;;;18.70;49.71;100057.94;5029439;28;20469;-59
2022/01/31 08:23:30;;;;;;;4.77;2.40;;;;;;;18.73;49.67;100043.69;5028879;28;20774;-59
2022/01/31 08:25:57;;;;;;;4.27;2.57;;;;;;;18.73;49.88;100052.28;5029856;28;20176;-59
2022/01/31 08:28:31;;;;;;;3.27;2.10;;;;;;;18.71;49.77;100040.38;5029677;28;20176;-59
2022/01/31 08:34:04;;;;;;;3.80;2.33;;;;;;;18.72;49.58;100035.50;5030257;28;20470;-59
2022/01/31 08:36:34;;;;;;;3.77;2.47;;;;;;;18.70;49.98;100024.44;5032511;28;20479;-59
2022/01/31 08:38:59;;;;;;;3.43;2.40;;;;;;;18.69;49.58;100031.38;5032165;28;20430;-59
2022/01/31 08:41:24;;;;;;;4.80;2.83;;;;;;;18.69;49.82;100031.38;5033299;28;20776;-59
2022/01/31 08:43:50;;;;;;;4.00;2.30;;;;;;;18.73;49.75;100034.28;5033320;28;20172;-59
2022/01/31 08:46:16;;;;;;;4.20;2.73;;;;;;;18.75;49.55;100026.97;5033374;28;20215;-59
2022/01/31 08:48:41;;;;;;;3.90;2.50;;;;;;;18.75;49.79;100046.16;5033392;28;20724;-59
2022/01/31 08:51:09;;;;;;;3.30;2.17;;;;;;;18.76;49.58;100047.81;5032698;28;20180;-59
2022/01/31 08:53:34;;;;;;;3.27;2.40;;;;;;;18.73;49.44;100046.56;5032331;28;20235;-59
2022/01/31 08:56:10;;;;;;;3.50;2.30;;;;;;;18.75;49.40;100035.53;5031184;28;20427;-59
2022/01/31 08:58:41;;;;;;;4.73;2.47;;;;;;;18.74;49.76;100035.94;5032250;28;20175;-59
2022/01/31 09:01:08;;;;;;;4.70;2.37;;;;;;;18.73;49.74;100028.56;5032236;28;20423;-59
2022/01/31 09:03:44;;;;;;;3.30;2.20;;;;;;;18.69;49.63;100036.25;5033171;28;20474;-59
2022/01/31 09:06:10;;;;;;;3.50;2.10;;;;;;;18.73;49.69;100032.25;5032919;28;20500;-60
2022/01/31 09:08:36;;;;;;;3.00;2.23;;;;;;;18.70;49.54;100050.19;5032503;28;20430;-60
2022/01/31 09:11:02;;;;;;;3.67;2.60;;;;;;;18.74;49.64;100047.38;5032421;28;20432;-59
2022/01/31 09:13:27;;;;;;;3.87;2.33;;;;;;;18.75;49.77;100043.28;5031632;28;20664;-59
2022/01/31 09:15:53;;;;;;;2.90;2.30;;;;;;;18.74;49.59;100030.19;5032861;28;20184;-59
2022/01/31 09:18:18;;;;;;;4.00;2.70;;;;;;;18.73;49.47;100035.13;5032065;28;20532;-59
2022/01/31 09:20:44;;;;;;;3.17;2.10;;;;;;;18.74;49.71;100042.47;5032421;28;20624;-59
2022/01/31 09:23:09;;;;;;;4.63;2.40;;;;;;;18.69;49.58;100025.66;5032148;28;20188;-59
2022/01/31 09:25:35;;;;;;;3.80;2.30;;;;;;;18.77;49.42;100018.00;5032216;28;20176;-60
2022/01/31 09:28:02;;;;;;;3.63;2.27;;;;;;;18.74;49.43;100008.16;5032032;28;20212;-61
2022/01/31 09:30:28;;;;;;;3.50;1.90;;;;;;;18.70;49.87;100015.88;5032281;28;20172;-59
2022/01/31 09:32:54;;;;;;;3.20;2.30;;;;;;;18.78;49.71;100017.63;5032440;28;20466;-58
2022/01/31 09:35:20;;;;;;;4.17;2.60;;;;;;;18.72;50.18;100006.91;5032222;28;20184;-59
2022/01/31 09:37:45;;;;;;;4.00;2.80;;;;;;;18.73;49.97;99999.97;5031120;28;20473;-59
2022/01/31 09:40:16;;;;;;;4.67;2.60;;;;;;;18.74;49.95;100015.91;5032189;28;20179;-59
2022/01/31 09:43:02;;;;;;;3.13;2.00;;;;;;;18.75;49.50;100018.38;5031821;28;20169;-60
2022/01/31 09:46:16;;;;;;;4.03;2.33;;;;;;;18.74;49.53;100013.88;5032078;28;20419;-60
2022/01/31 09:48:36;;;;;;;3.30;1.90;;;;;;;18.73;49.48;100014.25;5030261;28;20435;-59
2022/01/31 09:51:09;;;;;;;2.93;2.00;;;;;;;18.76;49.55;100013.50;5032138;28;20443;-59
2022/01/31 09:53:43;;;;;;;3.63;2.10;;;;;;;18.73;49.91;100009.38;5032033;28;20463;-59
2022/01/31 09:56:10;;;;;;;2.90;1.80;;;;;;;18.76;49.57;100004.91;5031808;28;20415;-59
2022/01/31 09:58:36;;;;;;;4.60;2.37;;;;;;;18.77;49.40;100004.50;5030869;28;20427;-59
2022/01/31 10:01:05;;;;;;;3.03;1.90;;;;;;;18.80;49.45;100005.75;5031617;28;21033;-59
2022/01/31 10:03:31;;;;;;;3.77;2.60;;;;;;;18.76;49.43;100007.78;5031450;28;20493;-59
2022/01/31 10:05:57;;;;;;;3.87;1.83;;;;;;;18.82;49.42;100018.47;5031948;28;20439;-59
2022/01/31 10:08:23;;;;;;;2.40;1.47;;;;;;;18.76;49.48;100004.91;5030490;28;20168;-59
2022/01/31 10:10:49;;;;;;;3.00;1.83;;;;;;;18.79;49.52;100010.69;5013965;28;20922;-59
2022/01/31 10:16:26;;;;;;;2.70;1.60;;;;;;;18.79;49.74;100024.97;5029660;28;20187;-59
2022/01/31 10:18:59;;;;;;;3.10;1.70;;;;;;;18.76;49.57;100011.44;5030521;28;20431;-59
2022/01/31 10:21:24;;;;;;;4.00;2.37;;;;;;;18.72;49.90;100016.28;5031459;28;20442;-59
2022/01/31 10:23:50;;;;;;;3.90;2.03;;;;;;;18.75;49.90;100020.41;5031064;28;20502;-60
2022/01/31 10:26:31;;;;;;;3.10;2.00;;;;;;;18.74;50.04;100016.75;5031487;28;20196;-59
2022/01/31 10:29:14;;;;;;;3.53;1.93;;;;;;;18.76;49.70;100011.44;5030755;28;20639;-59
2022/01/31 10:32:08;;;;;;;2.67;1.67;;;;;;;18.81;49.86;100013.16;5031079;28;20411;-59
2022/01/31 10:34:46;;;;;;;2.77;1.73;;;;;;;18.76;49.59;100011.44;5031284;28;20459;-60
2022/01/31 10:37:13;;;;;;;3.30;1.93;;;;;;;18.80;49.56;100023.75;5031085;28;20414;-60
2022/01/31 10:45:36;;;;;;;2.73;2.00;;;;;;;18.82;49.30;100021.31;5031301;28;20898;-59
2022/01/31 10:51:24;;;;;;;2.20;1.53;;;;;;;18.79;49.31;100018.41;5030554;28;20977;-60
2022/01/31 10:53:45;;;;;;;3.10;1.90;;;;;;;18.75;49.78;100031.84;5016116;28;20502;-60
2022/01/31 10:56:11;;;;;;;2.60;1.50;;;;;;;18.74;49.86;100024.50;5030978;28;20442;-59
2022/01/31 10:59:03;;;;;;;3.07;1.60;;;;;;;18.78;49.57;100025.38;5030409;28;20488;-59
2022/01/31 11:01:28;;;;;;;3.20;1.83;;;;;;;18.76;49.78;100025.75;5030154;28;20177;-59
2022/01/31 11:03:54;;;;;;;2.73;1.73;;;;;;;18.77;49.87;100030.25;5030403;28;20753;-59
2022/01/31 11:06:20;;;;;;;3.43;1.93;;;;;;;18.79;49.63;100024.13;5030320;28;20184;-59
2022/01/31 11:08:46;;;;;;;3.80;2.03;;;;;;;18.78;49.40;100020.47;5030135;28;20497;-59
2022/01/31 11:11:11;;;;;;;3.30;2.00;;;;;;;18.80;49.50;100026.63;5030542;28;20180;-60
2022/01/31 11:13:37;;;;;;;2.50;1.60;;;;;;;18.80;49.46;100022.91;5030493;28;20459;-59
2022/01/31 11:16:04;;;;;;;3.43;1.90;;;;;;;18.79;49.98;100021.28;5031231;28;20176;-59
2022/01/31 11:18:31;;;;;;;3.97;2.13;;;;;;;18.81;49.05;100013.16;5030933;28;20271;-59
2022/01/31 11:21:07;;;;;;;3.77;1.90;;;;;;;18.78;49.57;100028.22;5030746;28;20412;-59
2022/01/31 11:23:43;;;;;;;2.73;1.70;;;;;;;18.81;49.51;100019.69;5030830;28;20761;-59
2022/01/31 11:26:10;;;;;;;3.47;1.93;;;;;;;18.81;49.29;100025.41;5030262;28;20429;-59
2022/01/31 11:28:38;;;;;;;5.40;2.00;;;;;;;18.74;49.69;100025.31;5030595;28;20411;-59
2022/01/31 11:31:03;;;;;;;3.17;1.97;;;;;;;18.75;49.71;100026.97;5030746;28;20415;-59
2022/01/31 11:33:29;;;;;;;2.30;1.70;;;;;;;18.73;49.70;100037.97;5030740;28;20451;-60
2022/01/31 11:35:54;;;;;;;3.07;2.00;;;;;;;18.78;49.41;100026.19;5029668;28;20180;-59
2022/01/31 11:38:20;;;;;;;3.00;1.87;;;;;;;18.75;49.82;100031.84;5030842;28;20226;-59
2022/01/31 11:40:46;;;;;;;2.40;1.70;;;;;;;18.78;49.73;100034.78;5029406;28;20218;-59